Huvudsida
METAR-TAF:

METAR-TAF

Flygplatser :

Namangan, Uzbekistan

latitud: 40-59-04N, longitud: 071-33-24E, höjd: 474 m

Aktuellt väderrapport

Denna rapport gjordes för 49 minuter sedan, klockan 08:00 UTC
Vind 4 kt från ost, varierande mellan nord och sydost
Temperatur 17°C
Fuktighet 29%
Tryck 1024 hPa
Sikt 10 km eller mer

METAR: UTFN 210800Z 08004KT 010V140 9999 NSC 17/M01 Q1024 R28/CLRD70 NOSIG

Tid: 13:49 (08:49 UTC)

Väderprognos

Denna rapport gjordes för 3 timmar och 49 minuter sedan, klockan 05:00 UTC
Prognos gäller från 21 kl. 06 UTC till 22 kl. 06 UTC
Vind 10 kt från nord/nordväst
Sikt: 7000 m
Temporärt
från 21 kl. 06 UTC till 21 kl. 12 UTC
Vind 8 kt från sydost

TAF: UTFN 210500Z 2106/2206 34010KT 7000 NSC TEMPO 2106/2112 14008KT

Aktuella väderrapporter och prognoser från 4000 flygplatser (METAR- och TAF-rapporter).

De tillgängliga stationerna syns som gula och röda prickar på kartan.

För musen över prickarna för att se namnen på stationerna.

Klicka sedan för att få väderrapporter och prognoser.

För att ändra kartan: Klicka på de gröna knapparna med ett svart kors på för att zooma in; den gröna knappen med ett streck på för att zooma ut; eller på de gröna pilarna för angränsande kartor.


METAR-TAF: